Kerrville, Tennessee
Current Conditions -  °F | °C
As of 10:55 AM on Sunday 23 Nov 2014 (Local Time) from KNQA Reporting Station
Light Rain Light Rain  
Wind Chill: 59°   Ceiling: 1000
Heat Index: 59°   Visibility: 5mi
Dew Point: 57°   Wind: 7mph
Humidity: 94%   Direction: 120°ESE
Pressure: 29.59"   Gusts: NA
Location:  35.3343°N, 89.9316°W
Report Text: KNQA 231655Z 12006KT 5SM -RA BR BKN010 OVC014 15/14 A2959
Loading
Personal Weather Stations






























Interactive Weather Map New forecast layout! Learn more

10-Day Weather Forecast

Advertisements
Track Severe Weather on mobile